createdAt,value
2023-01-26T00:00:27.177Z,19.70
2023-01-26T00:05:55.332Z,16.92
2023-01-26T00:11:06.728Z,14.83
2023-01-26T00:16:15.787Z,16.60
2023-01-26T00:21:25.518Z,17.85
2023-01-26T00:26:32.241Z,16.40
2023-01-26T00:31:40.981Z,15.75
2023-01-26T00:36:48.767Z,18.08
2023-01-26T00:42:14.395Z,17.00
2023-01-26T00:47:21.517Z,18.27
2023-01-26T00:52:32.057Z,13.50
2023-01-26T00:57:39.591Z,18.27
2023-01-26T01:02:45.963Z,16.75
2023-01-26T01:07:55.665Z,16.73
2023-01-26T01:13:02.319Z,17.55
2023-01-26T01:18:11.827Z,17.13
2023-01-26T01:23:19.952Z,17.55
2023-01-26T01:28:26.679Z,17.63
2023-01-26T01:33:33.462Z,19.63
2023-01-26T01:38:42.016Z,18.20
2023-01-26T01:49:00.142Z,17.48
2023-01-26T01:54:13.912Z,18.85
2023-01-26T01:59:22.817Z,17.65
2023-01-26T02:09:58.590Z,19.15
2023-01-26T02:15:05.777Z,20.67
2023-01-26T02:20:22.596Z,20.27
2023-01-26T02:25:43.733Z,19.52
2023-01-26T02:30:52.569Z,20.05
2023-01-26T02:35:59.037Z,20.80
2023-01-26T02:41:09.787Z,19.63
2023-01-26T02:46:18.319Z,24.88
2023-01-26T02:51:25.086Z,22.48
2023-01-26T02:56:32.147Z,22.73
2023-01-26T03:01:40.604Z,22.75
2023-01-26T03:06:47.576Z,22.52
2023-01-26T03:11:54.266Z,20.98
2023-01-26T03:17:02.670Z,21.92
2023-01-26T03:27:46.593Z,21.95
2023-01-26T03:32:57.188Z,20.38
2023-01-26T03:38:04.249Z,21.30
2023-01-26T03:43:41.135Z,21.42
2023-01-26T03:49:07.932Z,20.23
2023-01-26T03:54:33.715Z,21.30
2023-01-26T03:59:40.362Z,21.60
2023-01-26T04:05:09.598Z,20.10
2023-01-26T04:10:18.446Z,19.65
2023-01-26T04:15:43.301Z,21.05
2023-01-26T04:21:08.952Z,20.85
2023-01-26T04:26:17.220Z,22.92
2023-01-26T04:31:23.793Z,21.73
2023-01-26T04:36:34.477Z,21.90
2023-01-26T04:41:42.505Z,22.55
2023-01-26T04:46:52.187Z,23.20
2023-01-26T04:52:00.317Z,20.90
2023-01-26T04:57:10.535Z,22.83
2023-01-26T05:02:20.540Z,24.00
2023-01-26T05:07:28.492Z,23.58
2023-01-26T05:12:38.668Z,22.05
2023-01-26T05:18:05.913Z,20.48
2023-01-26T05:23:32.305Z,22.60
2023-01-26T05:28:44.409Z,21.55
2023-01-26T05:33:51.024Z,21.25
2023-01-26T05:39:03.896Z,22.45
2023-01-26T05:44:11.113Z,24.03
2023-01-26T05:49:23.769Z,23.63
2023-01-26T05:54:33.166Z,22.95
2023-01-26T05:59:40.419Z,21.55
2023-01-26T06:04:48.212Z,22.27
2023-01-26T06:09:57.037Z,23.67
2023-01-26T06:15:26.931Z,24.35
2023-01-26T06:20:35.361Z,24.60
2023-01-26T06:25:46.472Z,26.17
2023-01-26T06:36:04.469Z,23.20
2023-01-26T06:41:13.645Z,26.67
2023-01-26T06:46:23.074Z,25.75
2023-01-26T06:51:58.715Z,26.42
2023-01-26T07:03:05.725Z,23.80
2023-01-26T07:08:12.220Z,23.38
2023-01-26T07:13:20.254Z,24.63
2023-01-26T07:18:26.768Z,23.57
2023-01-26T07:23:35.021Z,24.58
2023-01-26T07:28:43.227Z,22.73
2023-01-26T07:33:50.721Z,20.80
2023-01-26T07:38:57.225Z,25.00
2023-01-26T07:44:08.632Z,23.23
2023-01-26T07:49:18.219Z,24.75
2023-01-26T07:54:26.566Z,25.58
2023-01-26T07:59:34.551Z,26.38
2023-01-26T08:04:40.836Z,27.23
2023-01-26T08:09:47.460Z,23.00
2023-01-26T08:14:56.423Z,22.83
2023-01-26T08:20:02.929Z,22.98
2023-01-26T08:25:11.351Z,28.75
2023-01-26T08:30:20.209Z,22.10
2023-01-26T08:35:26.691Z,22.98
2023-01-26T08:40:32.979Z,23.08
2023-01-26T08:45:42.114Z,21.95
2023-01-26T08:50:50.085Z,20.85
2023-01-26T08:55:56.752Z,19.25
2023-01-26T09:01:07.470Z,20.85
2023-01-26T09:06:16.262Z,19.50
2023-01-26T09:11:22.804Z,17.93
2023-01-26T09:16:31.078Z,19.38
2023-01-26T09:21:38.020Z,18.52
2023-01-26T09:26:44.763Z,17.55
2023-01-26T09:31:52.891Z,19.45
2023-01-26T09:36:59.496Z,18.40
2023-01-26T09:42:28.137Z,18.88
2023-01-26T09:47:52.084Z,20.27
2023-01-26T09:53:04.204Z,19.10
2023-01-26T09:58:21.757Z,18.42
2023-01-26T10:03:41.257Z,19.00
2023-01-26T10:08:47.742Z,18.27
2023-01-26T10:14:00.163Z,18.85
2023-01-26T10:19:16.112Z,19.13
2023-01-26T10:24:25.616Z,18.35
2023-01-26T10:29:32.684Z,18.17
2023-01-26T10:34:42.718Z,18.85
2023-01-26T10:40:01.298Z,19.13
2023-01-26T10:45:27.607Z,19.00
2023-01-26T10:50:36.004Z,18.88
2023-01-26T10:55:43.721Z,19.75
2023-01-26T11:00:58.434Z,18.80
2023-01-26T11:06:16.335Z,20.20
2023-01-26T11:11:29.260Z,18.38
2023-01-26T11:16:36.224Z,18.70
2023-01-26T11:21:50.588Z,17.88
2023-01-26T11:27:38.800Z,17.38
2023-01-26T11:32:57.490Z,18.00
2023-01-26T11:38:18.233Z,18.60
2023-01-26T11:43:50.458Z,18.00
2023-01-26T11:49:14.906Z,19.77
2023-01-26T11:54:41.071Z,20.17
2023-01-26T11:59:52.933Z,16.35
2023-01-26T12:05:03.569Z,17.73
2023-01-26T12:10:16.628Z,16.92
2023-01-26T12:15:30.145Z,17.85
2023-01-26T12:20:42.362Z,17.35
2023-01-26T12:25:56.611Z,18.05
2023-01-26T12:31:14.951Z,16.38
2023-01-26T12:36:37.678Z,15.48
2023-01-26T12:42:13.928Z,16.23
2023-01-26T12:47:26.054Z,17.00
2023-01-26T12:52:40.693Z,14.10
2023-01-26T12:57:56.482Z,15.48
2023-01-26T13:03:09.700Z,14.68
2023-01-26T13:08:54.208Z,15.43
2023-01-26T13:14:02.546Z,14.45
2023-01-26T13:19:38.024Z,14.65
2023-01-26T13:24:47.368Z,14.65
2023-01-26T13:29:59.999Z,14.85
2023-01-26T13:35:12.272Z,14.13
2023-01-26T13:40:24.726Z,14.05
2023-01-26T13:45:41.325Z,14.50
2023-01-26T13:50:53.153Z,14.73
2023-01-26T13:56:02.623Z,15.02
2023-01-26T14:01:17.310Z,14.10
2023-01-26T14:06:24.925Z,14.02
2023-01-26T14:11:34.985Z,14.73
2023-01-26T14:16:43.551Z,14.52
2023-01-26T14:21:53.859Z,14.00
2023-01-26T14:27:01.065Z,14.48
2023-01-26T14:32:18.153Z,15.07
2023-01-26T14:37:27.343Z,14.07
2023-01-26T14:47:43.092Z,15.27
2023-01-26T14:52:49.556Z,13.93
2023-01-26T14:57:56.542Z,15.00
2023-01-26T15:03:14.547Z,12.27
2023-01-26T15:08:24.633Z,14.38
2023-01-26T15:13:34.023Z,14.07
2023-01-26T15:18:42.023Z,14.63
2023-01-26T15:23:54.359Z,15.57
2023-01-26T15:29:03.890Z,16.25
2023-01-26T15:34:36.634Z,20.27
2023-01-26T15:39:43.922Z,19.73
2023-01-26T15:44:50.771Z,18.65
2023-01-26T15:49:58.879Z,17.70
2023-01-26T15:55:23.215Z,18.15
2023-01-26T16:00:29.755Z,17.40
2023-01-26T16:05:37.977Z,16.33
2023-01-26T16:10:44.824Z,20.67
2023-01-26T16:15:53.148Z,22.63
2023-01-26T16:21:01.487Z,20.13
2023-01-26T16:26:10.919Z,18.08
2023-01-26T16:31:20.989Z,20.58
2023-01-26T16:36:29.951Z,17.85
2023-01-26T16:41:37.064Z,15.13
2023-01-26T16:46:44.950Z,16.77
2023-01-26T16:51:53.428Z,20.13
2023-01-26T16:57:01.038Z,19.97
2023-01-26T17:02:21.215Z,13.52
2023-01-26T17:07:29.809Z,14.27
2023-01-26T17:12:37.479Z,12.80
2023-01-26T17:17:45.984Z,12.05
2023-01-26T17:22:54.739Z,12.27
2023-01-26T17:33:09.362Z,12.73
2023-01-26T17:38:17.840Z,12.77
2023-01-26T17:43:25.403Z,13.70
2023-01-26T17:48:32.912Z,15.18
2023-01-26T17:53:44.439Z,14.80
2023-01-26T17:58:56.222Z,15.13
2023-01-26T18:04:05.238Z,13.63
2023-01-26T18:09:14.653Z,14.27
2023-01-26T18:14:22.387Z,13.63
2023-01-26T18:19:31.517Z,11.97
2023-01-26T18:24:43.927Z,12.88
2023-01-26T18:29:53.383Z,12.77
2023-01-26T18:35:02.043Z,13.85
2023-01-26T18:40:13.866Z,14.85
2023-01-26T18:45:21.091Z,15.07
2023-01-26T18:50:28.323Z,16.17
2023-01-26T18:55:37.033Z,16.88
2023-01-26T19:00:45.548Z,15.15
2023-01-26T19:05:57.804Z,16.77
2023-01-26T19:11:15.330Z,17.10
2023-01-26T19:16:24.921Z,17.55
2023-01-26T19:21:35.378Z,18.02
2023-01-26T19:26:47.365Z,18.35
2023-01-26T19:31:58.485Z,17.80
2023-01-26T19:37:08.745Z,17.15
2023-01-26T19:42:20.303Z,17.17
2023-01-26T19:47:31.456Z,17.17
2023-01-26T19:52:40.618Z,14.98
2023-01-26T19:57:51.734Z,16.92
2023-01-26T20:03:01.308Z,19.35
2023-01-26T20:08:10.135Z,17.83
2023-01-26T20:13:20.316Z,17.57
2023-01-26T20:18:30.133Z,19.58
2023-01-26T20:23:53.604Z,22.15
2023-01-26T20:29:04.229Z,26.33
2023-01-26T20:34:14.582Z,25.27
2023-01-26T20:39:25.990Z,23.20
2023-01-26T20:44:37.198Z,20.73
2023-01-26T20:49:45.560Z,19.80
2023-01-26T20:54:54.831Z,19.17
2023-01-26T21:00:04.798Z,17.63
2023-01-26T21:05:13.950Z,18.13
2023-01-26T21:10:21.371Z,17.58
2023-01-26T21:15:30.738Z,16.70
2023-01-26T21:20:37.651Z,16.95
2023-01-26T21:25:44.912Z,16.45
2023-01-26T21:31:02.836Z,16.88
2023-01-26T21:36:13.698Z,18.65
2023-01-26T21:41:43.039Z,24.00
2023-01-26T21:46:56.103Z,23.00
2023-01-26T21:52:21.813Z,19.73
2023-01-26T21:57:45.897Z,15.70
2023-01-26T22:02:54.884Z,15.90
2023-01-26T22:13:09.133Z,15.60
2023-01-26T22:18:17.531Z,15.18
2023-01-26T22:23:24.800Z,14.75
2023-01-26T22:28:33.966Z,15.60
2023-01-26T22:33:42.302Z,16.35
2023-01-26T22:38:49.513Z,18.83
2023-01-26T22:43:58.873Z,16.23
2023-01-26T22:49:07.179Z,15.63
2023-01-26T22:54:13.631Z,16.57
2023-01-26T22:59:20.549Z,15.98
2023-01-26T23:04:30.137Z,15.80
2023-01-26T23:09:37.988Z,14.95
2023-01-26T23:14:44.850Z,14.77
2023-01-26T23:19:54.054Z,15.52
2023-01-26T23:25:18.053Z,14.45
2023-01-26T23:30:25.034Z,14.15
2023-01-26T23:35:33.139Z,14.40
2023-01-26T23:40:40.994Z,13.47
2023-01-26T23:45:48.557Z,13.48
2023-01-26T23:51:00.361Z,13.77
2023-01-26T23:56:11.672Z,13.60
